Time;durP1;ratioP1;P1;durP2;ratioP2;P2;SDS_P1;SDS_P2;PMS_P1;PMS_P2;Temp;Humidity;BMP_temperature;BMP_pressure;BME280_temperature;BME280_humidity;BME280_pressure;Samples;Min_cycle;Max_cycle;Signal;HPM_P1;HPM_P2
2023/03/16 00:01:38;;;;;;;5.95;2.22;;;4.40;99.90;;;;;;4991925;28;20050;-51
2023/03/16 00:04:03;;;;;;;5.10;2.30;;;4.40;99.90;;;;;;4992038;28;20486;-47
2023/03/16 00:06:29;;;;;;;8.00;2.40;;;4.40;99.90;;;;;;4993324;28;20389;-49
2023/03/16 00:08:57;;;;;;;7.93;2.47;;;4.40;99.90;;;;;;4991882;28;20039;-47
2023/03/16 00:11:27;;;;;;;5.78;2.58;;;4.40;99.90;;;;;;4990199;28;20074;-46
2023/03/16 00:13:53;;;;;;;5.55;2.20;;;4.40;99.90;;;;;;4991405;28;20046;-46
2023/03/16 00:16:19;;;;;;;9.52;2.53;;;4.40;99.90;;;;;;4992964;28;20359;-46
2023/03/16 00:18:44;;;;;;;4.63;2.38;;;4.40;99.90;;;;;;4993032;28;20046;-49
2023/03/16 00:21:12;;;;;;;8.07;3.17;;;4.50;99.90;;;;;;4990883;28;20038;-47
2023/03/16 00:23:38;;;;;;;8.77;2.83;;;4.80;99.90;;;;;;4990131;28;20385;-50
2023/03/16 00:26:06;;;;;;;7.70;2.50;;;4.60;99.90;;;;;;4992625;28;20037;-48
2023/03/16 00:28:34;;;;;;;6.53;2.70;;;4.40;99.90;;;;;;4992829;28;20542;-47
2023/03/16 00:31:05;;;;;;;5.38;2.22;;;4.50;99.90;;;;;;4992379;28;20059;-47
2023/03/16 00:33:34;;;;;;;6.47;2.70;;;4.40;99.90;;;;;;4990353;28;20550;-48
2023/03/16 00:36:04;;;;;;;6.72;2.53;;;4.70;99.90;;;;;;4992259;28;20492;-51
2023/03/16 00:38:33;;;;;;;7.05;2.63;;;4.40;99.90;;;;;;4992454;28;20097;-46
2023/03/16 00:41:02;;;;;;;5.93;2.50;;;4.40;99.90;;;;;;4992297;28;20038;-49
2023/03/16 00:43:29;;;;;;;6.55;2.50;;;4.40;99.90;;;;;;4992280;28;20074;-48
2023/03/16 00:46:05;;;;;;;5.97;2.60;;;4.40;99.90;;;;;;4992231;28;20524;-48
2023/03/16 00:48:34;;;;;;;4.97;2.33;;;4.30;99.90;;;;;;4992727;28;20039;-46
2023/03/16 00:51:05;;;;;;;8.45;2.83;;;4.40;99.90;;;;;;4992028;28;20038;-49
2023/03/16 00:53:35;;;;;;;5.97;2.45;;;4.30;99.90;;;;;;4991884;28;20034;-47
2023/03/16 00:56:05;;;;;;;6.05;2.75;;;4.30;99.90;;;;;;4990570;28;20089;-47
2023/03/16 00:58:35;;;;;;;5.82;2.60;;;4.30;99.90;;;;;;4990403;28;20088;-48
2023/03/16 01:01:06;;;;;;;6.95;2.90;;;4.30;99.90;;;;;;4991220;28;20039;-50
2023/03/16 01:03:33;;;;;;;5.47;2.67;;;4.30;99.90;;;;;;4991864;28;20047;-46
2023/03/16 01:06:10;;;;;;;7.72;2.38;;;4.30;99.90;;;;;;4990588;28;20046;-48
2023/03/16 01:08:38;;;;;;;7.88;3.60;;;4.70;99.90;;;;;;4991282;28;20041;-49
2023/03/16 01:11:15;;;;;;;10.68;3.22;;;4.30;99.90;;;;;;4990064;28;20133;-48
2023/03/16 01:13:41;;;;;;;7.13;2.78;;;4.40;99.90;;;;;;4990144;28;20045;-47
2023/03/16 01:16:08;;;;;;;6.25;2.72;;;4.40;99.90;;;;;;4991699;28;20117;-49
2023/03/16 01:18:34;;;;;;;5.50;3.00;;;4.30;99.90;;;;;;4991465;28;20566;-47
2023/03/16 01:21:02;;;;;;;7.85;2.70;;;4.30;99.90;;;;;;4991804;28;20034;-48
2023/03/16 01:23:31;;;;;;;7.70;2.78;;;4.40;99.90;;;;;;4989882;28;20477;-48
2023/03/16 01:25:58;;;;;;;6.10;2.90;;;4.30;99.90;;;;;;4991654;28;20034;-49
2023/03/16 01:28:27;;;;;;;6.57;2.80;;;4.30;99.90;;;;;;4991300;28;20035;-48
2023/03/16 01:31:00;;;;;;;8.70;3.00;;;4.30;99.90;;;;;;4973654;28;20081;-50
2023/03/16 01:33:27;;;;;;;6.18;2.70;;;4.30;99.90;;;;;;4991050;28;20164;-49
2023/03/16 01:35:53;;;;;;;7.22;2.90;;;4.30;99.90;;;;;;4991268;28;20054;-49
2023/03/16 01:38:20;;;;;;;8.27;2.65;;;4.30;99.90;;;;;;4991576;28;20034;-51
2023/03/16 01:40:49;;;;;;;8.93;2.92;;;4.30;99.90;;;;;;4990826;28;20502;-47
2023/03/16 01:43:17;;;;;;;7.90;3.10;;;4.30;99.90;;;;;;4991406;28;20046;-49
2023/03/16 01:46:16;;;;;;;10.38;3.00;;;4.30;99.90;;;;;;4990960;28;20038;-45
2023/03/16 01:48:45;;;;;;;6.25;2.83;;;4.80;99.90;;;;;;4986748;28;20046;-45
2023/03/16 01:51:22;;;;;;;6.50;2.85;;;4.30;99.90;;;;;;4990277;28;20064;-52
2023/03/16 01:53:56;;;;;;;8.07;2.90;;;4.30;99.90;;;;;;4990882;28;20402;-49
2023/03/16 01:56:26;;;;;;;6.35;2.90;;;4.30;99.90;;;;;;4990748;28;20118;-46
2023/03/16 01:58:57;;;;;;;6.38;2.80;;;4.40;99.90;;;;;;4991315;28;20158;-45
2023/03/16 02:01:25;;;;;;;8.07;3.38;;;4.60;99.90;;;;;;4990150;28;20038;-44
2023/03/16 02:03:59;;;;;;;6.60;3.17;;;4.40;99.90;;;;;;4991082;28;20085;-47
2023/03/16 02:06:25;;;;;;;7.80;3.00;;;4.30;99.90;;;;;;4991107;28;20447;-48
2023/03/16 02:08:54;;;;;;;5.50;3.25;;;4.40;99.90;;;;;;4991014;28;20117;-47
2023/03/16 02:11:21;;;;;;;7.55;3.33;;;4.40;99.90;;;;;;4989480;28;20454;-49
2023/03/16 02:13:47;;;;;;;6.82;3.47;;;4.30;99.90;;;;;;4989022;28;20046;-48
2023/03/16 02:16:18;;;;;;;8.93;3.45;;;4.40;99.90;;;;;;4990825;28;20077;-49
2023/03/16 02:18:48;;;;;;;6.45;3.15;;;4.40;99.90;;;;;;4988865;28;20398;-46
2023/03/16 02:21:34;;;;;;;6.65;3.30;;;4.40;99.90;;;;;;4990272;28;20046;-48
2023/03/16 02:24:02;;;;;;;9.93;3.78;;;4.40;99.90;;;;;;4990445;28;20046;-49
2023/03/16 02:26:28;;;;;;;7.30;3.88;;;4.40;99.90;;;;;;4990695;28;20049;-47
2023/03/16 02:29:12;;;;;;;5.95;3.60;;;4.40;99.90;;;;;;4990579;28;20038;-47
2023/03/16 02:31:38;;;;;;;;;;;4.40;99.90;;;;;;4990657;28;20457;-48
2023/03/16 02:34:04;;;;;;;9.98;3.65;;;4.40;99.90;;;;;;4990529;28;20009;-47
2023/03/16 02:36:32;;;;;;;10.57;3.42;;;4.40;99.90;;;;;;4990496;28;20046;-46
2023/03/16 02:38:57;;;;;;;8.25;3.55;;;4.40;99.90;;;;;;4990919;28;20122;-47
2023/03/16 02:41:23;;;;;;;8.23;3.50;;;4.40;99.90;;;;;;4990571;28;20125;-48
2023/03/16 02:44:00;;;;;;;7.70;3.85;;;4.40;99.90;;;;;;4991170;28;20422;-49
2023/03/16 02:46:27;;;;;;;6.82;4.07;;;4.40;99.90;;;;;;4994734;28;20096;-51
2023/03/16 02:49:15;;;;;;;6.45;4.03;;;4.40;99.90;;;;;;4992958;28;20101;-49
2023/03/16 02:51:42;;;;;;;9.27;3.90;;;4.40;99.90;;;;;;4994453;28;20105;-51
2023/03/16 02:54:07;;;;;;;6.50;3.72;;;4.40;99.90;;;;;;4991689;28;20121;-48
2023/03/16 02:56:33;;;;;;;8.45;3.83;;;4.70;99.90;;;;;;4994049;28;20463;-51
2023/03/16 02:58:59;;;;;;;8.68;4.15;;;4.40;99.90;;;;;;4992896;28;20034;-47
2023/03/16 03:01:25;;;;;;;6.90;3.50;;;4.40;99.90;;;;;;4994388;28;20097;-48
2023/03/16 03:03:50;;;;;;;8.45;3.63;;;4.40;99.90;;;;;;4994010;28;20034;-48
2023/03/16 03:06:16;;;;;;;8.98;4.10;;;4.40;99.90;;;;;;4994458;28;20442;-48
2023/03/16 03:08:41;;;;;;;11.43;3.97;;;4.40;99.90;;;;;;4992717;28;20062;-48
2023/03/16 03:11:08;;;;;;;10.05;4.47;;;4.40;99.90;;;;;;4994167;28;20108;-48
2023/03/16 03:13:34;;;;;;;9.27;4.05;;;4.50;99.90;;;;;;4993736;28;20049;-48
2023/03/16 03:16:00;;;;;;;10.13;4.20;;;4.40;99.90;;;;;;4994356;28;20035;-49
2023/03/16 03:18:26;;;;;;;8.23;3.85;;;4.40;99.90;;;;;;4992652;28;20046;-52
2023/03/16 03:20:52;;;;;;;11.73;4.55;;;4.40;99.90;;;;;;4994098;28;20490;-49
2023/03/16 03:23:18;;;;;;;8.98;4.55;;;4.40;99.90;;;;;;4993888;28;20038;-51
2023/03/16 03:25:44;;;;;;;10.55;4.05;;;4.50;99.90;;;;;;4993568;28;20289;-48
2023/03/16 03:28:10;;;;;;;7.57;4.07;;;4.40;99.90;;;;;;4992423;28;20533;-49
2023/03/16 03:30:36;;;;;;;10.32;4.68;;;4.40;99.90;;;;;;4992134;28;20058;-50
2023/03/16 03:33:02;;;;;;;7.97;4.10;;;4.40;99.90;;;;;;4993620;28;20121;-49
2023/03/16 03:35:27;;;;;;;11.85;4.80;;;4.40;99.90;;;;;;4993815;28;20045;-50
2023/03/16 03:37:53;;;;;;;12.55;4.63;;;4.40;99.90;;;;;;4993740;28;20548;-49
2023/03/16 03:40:20;;;;;;;9.98;4.75;;;4.70;99.90;;;;;;4993732;28;20038;-50
2023/03/16 03:42:46;;;;;;;9.35;4.75;;;4.40;99.90;;;;;;4991747;28;20085;-50
2023/03/16 03:45:13;;;;;;;10.18;4.65;;;4.30;99.90;;;;;;4993635;28;20505;-45
2023/03/16 03:47:40;;;;;;;8.23;4.82;;;4.30;99.90;;;;;;4991849;28;20049;-49
2023/03/16 03:50:08;;;;;;;11.45;4.88;;;4.30;99.90;;;;;;4993194;28;20038;-48
2023/03/16 03:52:33;;;;;;;10.10;4.70;;;4.30;99.90;;;;;;4992287;28;20077;-49
2023/03/16 03:54:59;;;;;;;10.60;4.88;;;4.30;99.90;;;;;;4993098;28;20105;-50
2023/03/16 03:57:25;;;;;;;19.17;7.00;;;4.60;99.90;;;;;;4992297;28;20042;-48
2023/03/16 03:59:50;;;;;;;9.13;5.03;;;4.70;99.90;;;;;;4993358;28;20042;-51
2023/03/16 04:02:16;;;;;;;10.27;5.20;;;4.30;99.90;;;;;;4975713;28;20468;-49
2023/03/16 04:04:42;;;;;;;10.75;5.07;;;4.80;99.90;;;;;;4993574;28;20046;-51
2023/03/16 04:07:09;;;;;;;11.38;5.20;;;4.30;99.90;;;;;;4976059;28;20095;-47
2023/03/16 04:09:35;;;;;;;10.07;5.10;;;4.20;99.90;;;;;;4993275;28;20042;-49
2023/03/16 04:12:02;;;;;;;10.70;4.90;;;4.20;99.90;;;;;;4993114;28;20065;-47
2023/03/16 04:14:28;;;;;;;10.75;5.00;;;4.30;99.90;;;;;;4992787;28;20043;-50
2023/03/16 04:16:55;;;;;;;10.27;4.60;;;4.20;99.90;;;;;;4992659;28;20042;-52
2023/03/16 04:19:22;;;;;;;8.98;5.05;;;4.20;99.90;;;;;;4992950;28;20066;-51
2023/03/16 04:21:48;;;;;;;10.60;4.80;;;4.20;99.90;;;;;;4991988;28;20073;-46
2023/03/16 04:24:14;;;;;;;12.52;5.65;;;4.70;99.90;;;;;;4992635;28;20057;-48
2023/03/16 04:26:43;;;;;;;11.07;5.03;;;4.20;99.90;;;;;;4992885;28;20390;-51
2023/03/16 04:29:11;;;;;;;11.98;5.28;;;4.20;99.90;;;;;;4992674;28;20134;-50
2023/03/16 04:31:37;;;;;;;11.23;5.05;;;4.20;99.90;;;;;;4993542;28;20053;-48
2023/03/16 04:34:02;;;;;;;8.82;5.00;;;4.20;99.90;;;;;;4992799;28;20038;-48
2023/03/16 04:36:28;;;;;;;12.23;5.30;;;4.20;99.90;;;;;;4990948;28;20088;-49
2023/03/16 04:38:54;;;;;;;10.35;4.85;;;4.20;99.90;;;;;;4992313;28;20481;-50
2023/03/16 04:41:19;;;;;;;9.55;5.05;;;4.20;99.90;;;;;;4992021;28;20047;-52
2023/03/16 04:43:45;;;;;;;10.65;5.20;;;4.20;99.90;;;;;;4992474;28;20038;-48
2023/03/16 04:46:11;;;;;;;11.10;5.15;;;4.20;99.90;;;;;;4992959;28;20049;-51
2023/03/16 04:48:37;;;;;;;9.82;4.95;;;4.20;99.90;;;;;;4991633;28;20546;-49
2023/03/16 04:51:04;;;;;;;7.35;4.57;;;4.20;99.90;;;;;;4990417;28;20038;-47
2023/03/16 04:53:31;;;;;;;8.95;4.50;;;4.20;99.90;;;;;;4992320;28;20034;-50
2023/03/16 04:55:57;;;;;;;9.48;4.60;;;4.20;99.90;;;;;;4991881;28;20603;-51
2023/03/16 04:58:23;;;;;;;10.18;5.03;;;4.20;99.90;;;;;;4974626;28;20038;-48
2023/03/16 05:00:51;;;;;;;10.43;4.68;;;4.20;99.90;;;;;;4991773;28;20049;-51
2023/03/16 05:03:17;;;;;;;9.60;4.97;;;4.20;99.90;;;;;;4992638;28;20038;-49
2023/03/16 05:05:45;;;;;;;9.82;4.80;;;4.20;99.90;;;;;;4991937;28;20150;-52
2023/03/16 05:08:11;;;;;;;11.13;5.05;;;4.20;99.90;;;;;;4991054;28;20034;-49
2023/03/16 05:10:37;;;;;;;8.57;4.82;;;4.20;99.90;;;;;;4991637;28;20053;-45
2023/03/16 05:13:04;;;;;;;10.38;4.80;;;4.30;99.90;;;;;;4992006;28;20034;-46
2023/03/16 05:15:30;;;;;;;13.20;5.25;;;4.60;99.90;;;;;;4992485;28;20042;-48
2023/03/16 05:17:56;;;;;;;9.40;4.60;;;4.30;99.90;;;;;;4992169;28;20054;-49
2023/03/16 05:20:22;;;;;;;9.73;4.78;;;4.30;99.90;;;;;;4991649;28;20096;-49
2023/03/16 05:22:49;;;;;;;8.88;4.97;;;4.50;99.90;;;;;;4991593;28;20056;-47
2023/03/16 05:25:15;;;;;;;10.98;4.55;;;4.20;99.90;;;;;;4990883;28;20079;-50
2023/03/16 05:27:43;;;;;;;8.43;4.47;;;4.20;99.90;;;;;;4991773;28;20035;-48
2023/03/16 05:30:10;;;;;;;11.45;5.25;;;4.50;99.90;;;;;;4991749;28;20050;-50
2023/03/16 05:32:36;;;;;;;8.27;4.53;;;4.10;99.90;;;;;;4992288;28;20118;-49
2023/03/16 05:35:03;;;;;;;10.50;5.18;;;4.20;99.90;;;;;;4991926;28;20453;-46
2023/03/16 05:37:30;;;;;;;9.15;5.07;;;4.10;99.90;;;;;;4991247;28;20035;-45
2023/03/16 05:39:57;;;;;;;9.30;4.88;;;4.10;99.90;;;;;;4991041;28;20060;-48
2023/03/16 05:42:25;;;;;;;11.48;5.22;;;4.10;99.90;;;;;;4989938;28;20093;-45
2023/03/16 05:44:52;;;;;;;8.85;4.50;;;4.20;99.90;;;;;;4991303;28;20044;-46
2023/03/16 05:47:19;;;;;;;11.15;5.15;;;4.20;99.90;;;;;;4990297;28;20085;-45
2023/03/16 05:49:45;;;;;;;8.10;4.80;;;4.20;99.90;;;;;;4991619;28;20074;-47
2023/03/16 05:52:11;;;;;;;10.75;5.60;;;4.20;99.90;;;;;;4991263;28;20138;-48
2023/03/16 05:54:36;;;;;;;10.20;5.05;;;4.20;99.90;;;;;;4990713;28;20454;-47
2023/03/16 05:57:02;;;;;;;10.38;5.40;;;4.20;99.90;;;;;;4989553;28;20042;-46
2023/03/16 05:59:28;;;;;;;9.18;4.82;;;4.20;99.90;;;;;;4990725;28;20448;-47
2023/03/16 06:01:54;;;;;;;10.85;5.40;;;4.20;99.90;;;;;;5005737;28;20124;-50
2023/03/16 06:04:20;;;;;;;12.07;4.72;;;4.10;99.90;;;;;;4991312;28;20038;-50
2023/03/16 06:06:46;;;;;;;10.45;5.57;;;4.20;99.90;;;;;;4989653;28;20038;-46
2023/03/16 06:09:11;;;;;;;12.07;5.80;;;4.20;99.90;;;;;;4989342;28;20452;-46
2023/03/16 06:11:37;;;;;;;14.27;5.68;;;4.20;99.90;;;;;;4990948;28;20046;-48
2023/03/16 06:14:03;;;;;;;10.45;5.60;;;4.30;99.90;;;;;;4988326;28;20064;-49
2023/03/16 06:16:29;;;;;;;12.55;5.78;;;4.30;99.90;;;;;;4987803;28;20092;-46
2023/03/16 06:18:55;;;;;;;11.50;5.25;;;4.20;99.90;;;;;;4990264;28;20481;-46
2023/03/16 06:21:22;;;;;;;13.50;5.95;;;4.20;99.90;;;;;;4991311;28;20042;-48
2023/03/16 06:23:48;;;;;;;9.05;5.30;;;4.20;99.90;;;;;;4989497;28;20034;-50
2023/03/16 06:26:13;;;;;;;9.32;5.40;;;4.30;99.90;;;;;;4990681;28;20030;-49
2023/03/16 06:28:40;;;;;;;11.93;5.78;;;4.30;99.90;;;;;;4990988;28;20046;-46
2023/03/16 06:31:06;;;;;;;10.07;5.53;;;4.30;99.90;;;;;;4990068;28;20417;-48
2023/03/16 06:33:32;;;;;;;10.70;5.57;;;4.30;99.90;;;;;;4989740;28;20041;-49
2023/03/16 06:35:57;;;;;;;8.57;4.95;;;4.30;99.90;;;;;;4990522;28;20117;-48
2023/03/16 06:38:23;;;;;;;12.45;5.50;;;4.30;99.90;;;;;;4990456;28;20112;-48
2023/03/16 06:40:53;;;;;;;11.18;5.10;;;4.30;99.90;;;;;;4990658;28;20039;-50
2023/03/16 06:43:19;;;;;;;10.07;4.65;;;4.40;99.90;;;;;;4990543;28;20045;-50
2023/03/16 06:45:45;;;;;;;11.40;5.03;;;4.40;99.90;;;;;;4989130;28;20482;-47
2023/03/16 06:48:11;;;;;;;12.18;5.55;;;4.40;99.90;;;;;;4990425;28;20498;-50
2023/03/16 06:50:36;;;;;;;10.30;5.18;;;4.40;99.90;;;;;;4990093;28;20042;-46
2023/03/16 06:53:02;;;;;;;11.55;5.25;;;4.60;99.90;;;;;;4990416;28;20429;-49
2023/03/16 06:55:28;;;;;;;11.55;4.95;;;4.40;99.90;;;;;;4990318;28;20049;-51
2023/03/16 06:57:53;;;;;;;9.00;4.95;;;4.50;99.90;;;;;;4988755;28;20054;-50
2023/03/16 07:00:20;;;;;;;11.27;4.90;;;4.60;99.90;;;;;;4990639;28;20038;-47
2023/03/16 07:02:46;;;;;;;10.20;4.70;;;4.50;99.90;;;;;;4990215;28;20049;-48
2023/03/16 07:05:14;;;;;;;9.57;4.70;;;5.00;99.90;;;;;;4990159;28;20039;-47
2023/03/16 07:07:44;;;;;;;12.00;5.07;;;4.60;99.90;;;;;;4990605;28;20039;-47
2023/03/16 07:10:16;;;;;;;12.20;5.40;;;4.60;99.90;;;;;;4989237;28;20050;-46
2023/03/16 07:12:42;;;;;;;10.65;4.82;;;4.60;99.90;;;;;;4990526;28;20049;-46
2023/03/16 07:15:09;;;;;;;9.27;4.45;;;4.70;99.90;;;;;;4990383;28;20049;-47
2023/03/16 07:17:35;;;;;;;8.32;4.28;;;4.70;99.90;;;;;;4991070;28;20422;-48
2023/03/16 07:20:04;;;;;;;9.73;4.15;;;4.70;99.90;;;;;;4990743;28;20096;-49
2023/03/16 07:22:31;;;;;;;11.60;4.88;;;4.70;99.90;;;;;;4990365;28;20100;-50
2023/03/16 07:24:57;;;;;;;7.95;3.80;;;4.70;99.90;;;;;;4989745;28;20038;-48
2023/03/16 07:27:24;;;;;;;12.32;4.60;;;4.70;99.90;;;;;;4990309;28;20034;-48
2023/03/16 07:29:50;;;;;;;8.80;4.40;;;4.80;99.90;;;;;;4989734;28;20058;-48
2023/03/16 07:32:17;;;;;;;9.13;4.43;;;4.80;99.90;;;;;;4993241;28;20509;-48
2023/03/16 07:34:42;;;;;;;8.80;4.60;;;5.00;99.90;;;;;;4994048;28;20034;-48
2023/03/16 07:37:08;;;;;;;7.72;4.32;;;4.80;99.90;;;;;;4993543;28;20394;-48
2023/03/16 07:39:37;;;;;;;8.55;4.25;;;5.10;99.90;;;;;;4993483;28;20282;-48
2023/03/16 07:42:03;;;;;;;7.13;3.60;;;4.80;99.90;;;;;;4993737;28;20046;-51
2023/03/16 07:44:30;;;;;;;10.73;4.28;;;4.80;99.90;;;;;;4987123;28;20046;-48
2023/03/16 07:46:56;;;;;;;9.10;5.10;;;4.90;99.90;;;;;;4991737;28;20040;-49
2023/03/16 07:49:21;;;;;;;8.30;4.28;;;4.80;99.90;;;;;;4991812;28;20514;-48
2023/03/16 07:51:47;;;;;;;7.82;3.95;;;4.80;99.90;;;;;;4992153;28;20038;-48
2023/03/16 07:54:13;;;;;;;11.20;3.80;;;4.90;99.90;;;;;;4990871;28;20046;-48
2023/03/16 07:56:40;;;;;;;9.00;4.00;;;4.90;99.90;;;;;;4991982;28;20089;-50
2023/03/16 07:59:06;;;;;;;9.85;4.60;;;4.90;99.90;;;;;;4992362;28;20043;-47
2023/03/16 08:01:33;;;;;;;9.57;4.10;;;4.90;99.90;;;;;;4992307;28;20080;-47
2023/03/16 08:04:00;;;;;;;6.70;4.13;;;4.90;99.90;;;;;;4991790;28;20041;-50
2023/03/16 08:06:26;;;;;;;10.02;4.85;;;4.90;99.90;;;;;;4991651;28;20130;-46
2023/03/16 08:08:53;;;;;;;10.02;5.00;;;5.20;99.90;;;;;;4989941;28;20046;-49
2023/03/16 08:11:22;;;;;;;8.65;4.38;;;4.90;99.90;;;;;;4985730;28;20038;-45
2023/03/16 08:13:55;;;;;;;9.20;4.13;;;4.90;99.90;;;;;;4987641;28;20034;-49
2023/03/16 08:16:25;;;;;;;7.13;3.63;;;4.90;99.90;;;;;;4991539;28;20030;-50
2023/03/16 08:18:51;;;;;;;7.75;4.03;;;5.00;99.90;;;;;;4990323;28;20042;-50
2023/03/16 08:21:18;;;;;;;9.05;4.40;;;5.00;99.90;;;;;;4989430;28;20501;-48
2023/03/16 08:23:48;;;;;;;9.77;4.47;;;5.00;99.90;;;;;;4989877;28;20444;-48
2023/03/16 08:26:18;;;;;;;8.77;4.68;;;5.00;99.90;;;;;;4988065;28;20539;-50
2023/03/16 08:28:45;;;;;;;7.75;4.15;;;5.40;99.90;;;;;;4989817;28;20038;-50
2023/03/16 08:31:12;;;;;;;8.48;4.47;;;5.10;99.90;;;;;;4990726;28;20057;-46
2023/03/16 08:33:39;;;;;;;8.95;4.53;;;5.20;99.90;;;;;;4990645;28;20073;-50
2023/03/16 08:36:06;;;;;;;11.32;4.97;;;5.10;99.90;;;;;;4990751;28;20038;-48
2023/03/16 08:38:32;;;;;;;9.75;4.43;;;5.10;99.90;;;;;;4990863;28;20088;-47
2023/03/16 08:40:59;;;;;;;9.82;4.85;;;5.00;99.90;;;;;;4973510;28;20469;-48
2023/03/16 08:43:25;;;;;;;8.57;4.03;;;5.80;99.90;;;;;;4989712;28;20042;-48
2023/03/16 08:45:52;;;;;;;11.40;4.38;;;5.00;99.90;;;;;;4991323;28;20084;-50
2023/03/16 08:48:19;;;;;;;9.38;4.55;;;5.00;99.90;;;;;;4990644;28;20478;-48
2023/03/16 08:50:45;;;;;;;8.63;4.53;;;5.10;99.90;;;;;;4988447;28;20038;-46
2023/03/16 08:53:12;;;;;;;8.13;4.55;;;5.10;99.90;;;;;;4990734;28;20041;-50
2023/03/16 08:55:40;;;;;;;12.52;5.05;;;5.50;99.90;;;;;;4990523;28;20046;-49
2023/03/16 08:58:07;;;;;;;13.05;5.35;;;5.40;99.90;;;;;;4989941;28;20034;-48
2023/03/16 09:00:34;;;;;;;10.90;5.03;;;5.10;99.90;;;;;;4990523;28;20076;-48
2023/03/16 09:03:01;;;;;;;9.85;4.70;;;5.10;99.90;;;;;;4989170;28;20500;-49
2023/03/16 09:05:28;;;;;;;9.57;4.78;;;5.30;99.90;;;;;;4990377;28;20034;-48
2023/03/16 09:07:54;;;;;;;8.23;4.55;;;5.10;99.90;;;;;;4989084;28;20074;-49
2023/03/16 09:10:21;;;;;;;11.20;4.72;;;5.10;99.90;;;;;;4989496;28;20445;-51
2023/03/16 09:12:51;;;;;;;13.27;4.90;;;5.10;99.90;;;;;;4990929;28;20046;-49
2023/03/16 09:15:19;;;;;;;11.85;5.05;;;5.10;99.90;;;;;;4990703;28;20393;-48
2023/03/16 09:17:46;;;;;;;10.85;4.90;;;5.10;99.90;;;;;;4989372;28;20046;-46
2023/03/16 09:20:14;;;;;;;9.75;4.75;;;5.40;99.90;;;;;;4990479;28;20097;-49
2023/03/16 09:22:40;;;;;;;11.55;4.97;;;5.10;99.90;;;;;;4990107;28;20125;-49
2023/03/16 09:25:07;;;;;;;11.40;5.35;;;5.10;99.90;;;;;;4990151;28;20113;-48
2023/03/16 09:27:35;;;;;;;9.98;4.93;;;5.20;99.90;;;;;;4989473;28;20123;-49
2023/03/16 09:30:04;;;;;;;10.82;5.47;;;5.10;99.90;;;;;;4987543;28;20578;-48
2023/03/16 09:32:29;;;;;;;11.45;5.10;;;5.20;99.90;;;;;;4989318;28;20492;-47
2023/03/16 09:34:55;;;;;;;8.43;5.07;;;5.20;99.90;;;;;;4989626;28;20038;-50
2023/03/16 09:37:22;;;;;;;7.95;4.20;;;5.20;99.90;;;;;;4988892;28;20045;-47
2023/03/16 09:39:48;;;;;;;9.88;4.68;;;5.20;99.90;;;;;;4987253;28;20044;-49
2023/03/16 09:42:28;;;;;;;9.27;4.57;;;5.30;99.90;;;;;;4988807;28;20544;-45
2023/03/16 09:44:57;;;;;;;10.45;4.97;;;5.30;99.90;;;;;;4988727;28;20046;-51
2023/03/16 09:47:27;;;;;;;9.23;4.90;;;5.40;99.90;;;;;;4988166;28;20042;-51
2023/03/16 09:50:01;;;;;;;9.00;5.15;;;5.40;99.90;;;;;;4989517;28;20046;-48
2023/03/16 09:52:49;;;;;;;9.45;4.70;;;5.40;99.90;;;;;;4989606;28;20042;-47
2023/03/16 09:55:26;;;;;;;10.27;4.78;;;5.50;99.90;;;;;;4987789;28;20057;-49
2023/03/16 09:57:52;;;;;;;7.40;3.95;;;5.50;99.90;;;;;;4989651;28;20049;-47
2023/03/16 10:00:46;;;;;;;9.95;5.50;;;5.60;99.90;;;;;;4989875;28;20042;-48
2023/03/16 10:03:35;;;;;;;9.93;4.53;;;5.60;99.90;;;;;;4989305;28;20045;-48
2023/03/16 10:06:03;;;;;;;9.27;4.72;;;5.60;99.90;;;;;;4989835;28;20037;-49
2023/03/16 10:08:39;;;;;;;8.05;4.50;;;5.70;99.90;;;;;;4988298;28;20243;-49
2023/03/16 10:11:24;;;;;;;10.88;4.75;;;5.80;99.90;;;;;;4990063;28;20394;-50
2023/03/16 10:14:16;;;;;;;9.60;4.30;;;5.80;99.90;;;;;;4988847;28;20334;-49
2023/03/16 10:16:54;;;;;;;8.73;4.38;;;5.90;99.90;;;;;;4990185;28;20042;-47
2023/03/16 10:19:27;;;;;;;9.25;4.57;;;5.90;99.90;;;;;;4989255;28;21710;-49
2023/03/16 10:21:56;;;;;;;11.07;4.80;;;6.00;99.90;;;;;;4988163;28;20042;-50
2023/03/16 10:24:57;;;;;;;11.77;4.95;;;6.00;99.90;;;;;;4987461;28;20073;-48
2023/03/16 10:27:28;;;;;;;14.60;4.78;;;6.10;99.90;;;;;;4970937;28;20093;-51
2023/03/16 10:29:55;;;;;;;8.15;4.47;;;6.10;99.90;;;;;;4978736;28;20410;-49
2023/03/16 10:32:23;;;;;;;7.88;4.57;;;6.40;99.90;;;;;;4979370;28;20093;-48
2023/03/16 10:34:57;;;;;;;7.88;4.40;;;6.20;99.90;;;;;;4981589;28;20030;-47
2023/03/16 10:37:25;;;;;;;11.05;5.20;;;6.30;99.90;;;;;;4981224;28;20121;-46
2023/03/16 10:39:51;;;;;;;9.90;4.90;;;6.30;99.90;;;;;;4983325;28;20556;-49
2023/03/16 10:42:20;;;;;;;12.82;5.13;;;6.70;99.90;;;;;;4983308;28;20050;-50
2023/03/16 10:44:46;;;;;;;11.52;5.38;;;6.40;99.90;;;;;;4985400;28;20521;-51
2023/03/16 10:47:18;;;;;;;9.88;4.60;;;6.50;99.90;;;;;;4983187;28;20136;-51
2023/03/16 10:49:50;;;;;;;11.32;5.13;;;6.50;99.90;;;;;;4966341;28;20186;-47
2023/03/16 10:52:25;;;;;;;8.02;4.28;;;6.60;99.90;;;;;;4941228;29;20098;-49
2023/03/16 10:54:55;;;;;;;10.32;4.40;;;6.60;99.90;;;;;;4941032;29;20043;-49
2023/03/16 10:57:33;;;;;;;8.98;4.60;;;6.70;99.90;;;;;;4943344;29;20036;-49
2023/03/16 11:00:13;;;;;;;11.30;4.75;;;6.90;99.90;;;;;;4942010;29;20435;-49
2023/03/16 11:02:39;;;;;;;9.90;4.95;;;6.80;99.90;;;;;;4941659;28;20043;-51
2023/03/16 11:05:17;;;;;;;8.48;4.60;;;7.00;99.90;;;;;;4942421;28;20040;-48
2023/03/16 11:07:54;;;;;;;10.48;4.60;;;7.00;99.90;;;;;;4945812;29;20384;-51
2023/03/16 11:10:35;;;;;;;7.13;4.15;;;7.00;99.90;;;;;;4940136;28;20039;-50
2023/03/16 11:13:15;;;;;;;9.25;4.75;;;7.10;99.90;;;;;;4943432;29;20458;-51
2023/03/16 11:16:00;;;;;;;12.80;4.88;;;7.10;99.90;;;;;;4943893;29;20051;-51
2023/03/16 11:18:34;;;;;;;7.25;4.22;;;7.20;99.90;;;;;;4944956;29;20450;-48
2023/03/16 11:21:24;;;;;;;;;;;7.20;99.90;;;;;;4944612;29;20039;-50
2023/03/16 11:23:54;;;;;;;7.25;4.28;;;7.20;99.90;;;;;;4943584;29;20274;-49
2023/03/16 11:26:32;;;;;;;10.93;4.90;;;7.30;99.90;;;;;;4937296;29;20095;-48
2023/03/16 11:29:16;;;;;;;9.63;4.55;;;7.40;99.90;;;;;;4941745;28;20031;-49
2023/03/16 11:31:59;;;;;;;12.02;4.78;;;7.60;99.90;;;;;;4939400;29;20051;-47
2023/03/16 11:34:30;;;;;;;7.40;4.63;;;7.60;99.90;;;;;;4940307;28;20438;-48
2023/03/16 11:37:26;;;;;;;10.65;5.28;;;7.70;99.90;;;;;;4939887;29;20036;-49
2023/03/16 11:39:57;;;;;;;8.98;4.40;;;8.80;99.90;;;;;;4901213;29;20143;-47
2023/03/16 11:42:41;;;;;;;9.27;4.35;;;8.10;99.90;;;;;;4937093;29;20054;-50
2023/03/16 11:45:26;;;;;;;9.32;4.68;;;8.10;99.90;;;;;;4937813;29;20225;-49
2023/03/16 11:47:55;;;;;;;9.25;4.63;;;9.00;99.90;;;;;;4942685;29;20071;-49
2023/03/16 11:50:35;;;;;;;7.68;4.60;;;8.20;99.90;;;;;;4939808;28;20035;-51
2023/03/16 11:53:38;;;;;;;8.77;4.95;;;8.30;99.90;;;;;;4941162;29;20317;-48
2023/03/16 11:56:16;;;;;;;7.75;4.30;;;8.30;99.90;;;;;;4939604;29;20427;-47
2023/03/16 11:58:51;;;;;;;8.18;4.50;;;8.40;99.90;;;;;;4939605;29;20317;-48
2023/03/16 12:01:24;;;;;;;8.60;4.07;;;8.40;99.90;;;;;;4940269;29;20042;-48
2023/03/16 12:04:21;;;;;;;7.45;4.28;;;8.40;99.90;;;;;;4938118;29;20102;-49
2023/03/16 12:07:04;;;;;;;10.25;4.32;;;8.40;99.90;;;;;;4939924;29;20063;-48
2023/03/16 12:09:47;;;;;;;9.02;4.30;;;8.40;99.90;;;;;;4940228;29;20147;-48
2023/03/16 12:12:30;;;;;;;8.23;4.32;;;8.40;99.90;;;;;;4941081;29;20062;-48
2023/03/16 12:15:21;;;;;;;8.07;3.95;;;8.40;99.90;;;;;;4939214;29;20036;-46
2023/03/16 12:17:50;;;;;;;8.38;3.65;;;8.50;99.90;;;;;;4937191;28;20417;-50
2023/03/16 12:20:23;;;;;;;7.60;4.25;;;8.50;99.90;;;;;;4938389;29;20074;-48
2023/03/16 12:23:03;;;;;;;7.93;4.00;;;8.50;99.90;;;;;;4940429;29;20800;-48
2023/03/16 12:25:33;;;;;;;9.30;4.20;;;8.50;99.90;;;;;;4939204;29;20051;-48
2023/03/16 12:28:04;;;;;;;7.93;4.45;;;8.50;99.90;;;;;;4938846;29;20027;-49
2023/03/16 12:30:47;;;;;;;9.50;3.95;;;8.50;99.90;;;;;;4939891;29;20407;-48
2023/03/16 12:33:44;;;;;;;7.43;3.87;;;8.50;99.90;;;;;;4939266;29;20075;-50
2023/03/16 12:36:15;;;;;;;6.95;3.85;;;8.50;99.90;;;;;;4937610;29;20299;-48
2023/03/16 12:39:12;;;;;;;8.35;4.25;;;8.60;99.90;;;;;;4940818;29;20094;-52
2023/03/16 12:41:53;;;;;;;7.85;3.90;;;8.60;99.90;;;;;;4938799;29;20043;-48
2023/03/16 12:44:38;;;;;;;8.73;4.10;;;8.70;99.90;;;;;;4939944;29;20062;-47
2023/03/16 12:47:18;;;;;;;9.88;3.70;;;8.70;99.90;;;;;;4941700;28;20046;-51
2023/03/16 12:49:44;;;;;;;6.97;4.07;;;8.70;99.90;;;;;;4940045;29;20090;-48
2023/03/16 12:52:13;;;;;;;7.90;4.03;;;8.90;99.90;;;;;;4936231;28;20031;-46
2023/03/16 12:55:12;;;;;;;7.43;3.88;;;8.90;99.90;;;;;;4936518;28;20046;-46
2023/03/16 12:57:42;;;;;;;7.38;4.15;;;9.00;99.90;;;;;;4925115;29;20277;-49
2023/03/16 13:00:09;;;;;;;7.85;4.05;;;9.10;99.90;;;;;;4937090;29;20031;-46
2023/03/16 13:02:40;;;;;;;8.82;4.10;;;9.20;99.90;;;;;;4937622;29;20492;-48
2023/03/16 13:05:27;;;;;;;9.10;4.18;;;9.30;99.90;;;;;;4935299;29;20027;-47
2023/03/16 13:08:09;;;;;;;7.85;3.70;;;9.50;99.90;;;;;;4952184;28;20039;-51